Time;durP1;ratioP1;P1;durP2;ratioP2;P2;SDS_P1;SDS_P2;PMS_P1;PMS_P2;Temp;Humidity;BMP_temperature;BMP_pressure;BME280_temperature;BME280_humidity;BME280_pressure;Samples;Min_cycle;Max_cycle;Signal;HPM_P1;HPM_P2
2021/07/15 00:06:53;;;;;;;10.82;4.60;;;18.90;99.90;;;;;;20448085;28;20046;-49
2021/07/15 00:16:57;;;;;;;12.88;5.00;;;19.00;99.90;;;;;;20447828;28;20134;-49
2021/07/15 00:26:58;;;;;;;9.85;4.75;;;19.00;99.90;;;;;;20449423;28;20031;-49
2021/07/15 00:37:00;;;;;;;12.65;5.93;;;18.90;99.90;;;;;;20443730;28;20054;-49
2021/07/15 00:47:01;;;;;;;11.65;5.10;;;18.80;99.90;;;;;;20444871;28;20074;-49
2021/07/15 00:57:04;;;;;;;16.02;4.68;;;18.90;99.90;;;;;;20445132;28;20145;-49
2021/07/15 01:07:05;;;;;;;15.25;5.07;;;18.90;99.90;;;;;;20444637;28;20040;-49
2021/07/15 01:17:13;;;;;;;15.63;4.80;;;18.80;99.90;;;;;;20446018;28;20043;-49
2021/07/15 01:27:33;;;;;;;17.55;4.85;;;18.70;99.90;;;;;;20446325;28;20039;-49
2021/07/15 01:37:35;;;;;;;11.93;5.05;;;18.70;99.90;;;;;;20441578;28;20039;-49
2021/07/15 01:47:38;;;;;;;10.35;4.05;;;18.60;99.90;;;;;;20454311;28;20043;-49
2021/07/15 01:57:41;;;;;;;12.63;4.07;;;18.50;99.90;;;;;;20457056;28;20062;-49
2021/07/15 02:07:44;;;;;;;10.20;4.95;;;18.40;99.90;;;;;;20455952;28;20043;-49
2021/07/15 02:17:47;;;;;;;9.18;3.95;;;18.40;99.90;;;;;;20457191;28;20036;-49
2021/07/15 02:27:51;;;;;;;7.72;3.72;;;18.40;99.90;;;;;;20454938;28;20061;-49
2021/07/15 02:37:56;;;;;;;8.18;3.45;;;18.40;99.90;;;;;;20450882;28;20051;-49
2021/07/15 02:47:57;;;;;;;8.27;2.83;;;18.30;99.90;;;;;;20455002;28;20058;-49
2021/07/15 02:58:01;;;;;;;15.43;4.13;;;18.30;99.90;;;;;;20448257;28;20137;-49
2021/07/15 03:08:06;;;;;;;12.48;4.70;;;18.30;99.90;;;;;;20453262;28;20039;-49
2021/07/15 03:18:08;;;;;;;7.32;3.38;;;18.10;99.90;;;;;;20452185;28;20043;-49
2021/07/15 03:28:14;;;;;;;6.43;2.97;;;18.20;99.90;;;;;;20449104;28;20049;-49
2021/07/15 03:38:16;;;;;;;7.43;3.75;;;18.10;99.90;;;;;;20449939;28;20047;-49
2021/07/15 03:48:18;;;;;;;9.10;3.95;;;18.10;99.90;;;;;;20451674;28;20321;-49
2021/07/15 03:58:21;;;;;;;7.43;3.55;;;18.10;99.90;;;;;;20451023;28;20035;-49
2021/07/15 04:08:24;;;;;;;10.75;4.18;;;18.10;99.90;;;;;;20445773;28;20039;-49
2021/07/15 04:18:35;;;;;;;10.00;3.95;;;18.00;99.90;;;;;;20458455;28;20045;-49
2021/07/15 04:28:38;;;;;;;15.82;4.10;;;17.90;99.90;;;;;;20458690;28;20496;-49
2021/07/15 04:38:42;;;;;;;9.38;3.95;;;17.90;99.90;;;;;;20460408;28;20043;-49
2021/07/15 04:48:43;;;;;;;10.32;3.58;;;17.90;99.90;;;;;;20458407;28;20090;-49
2021/07/15 04:58:45;;;;;;;27.00;4.72;;;17.80;99.90;;;;;;20457536;28;20039;-49
2021/07/15 05:08:46;;;;;;;12.10;3.85;;;17.90;99.90;;;;;;20451239;28;20151;-49
2021/07/15 05:18:48;;;;;;;11.85;4.22;;;17.90;99.90;;;;;;20463035;28;20177;-49
2021/07/15 05:28:50;;;;;;;10.07;4.03;;;17.80;99.90;;;;;;20472047;28;20102;-49
2021/07/15 05:38:51;;;;;;;10.18;3.90;;;17.80;99.90;;;;;;20470685;28;20039;-49
2021/07/15 05:48:52;;;;;;;13.43;4.00;;;17.80;99.90;;;;;;20467729;28;20091;-49
2021/07/15 05:58:54;;;;;;;9.52;3.92;;;17.80;99.90;;;;;;20466973;28;20032;-49
2021/07/15 06:08:55;;;;;;;8.98;3.17;;;17.80;99.90;;;;;;20450769;28;20039;-49
2021/07/15 06:18:56;;;;;;;12.43;2.47;;;17.80;99.90;;;;;;20454636;28;20054;-49
2021/07/15 06:28:57;;;;;;;7.60;3.00;;;17.70;99.90;;;;;;20468940;28;20036;-49
2021/07/15 06:39:00;;;;;;;6.88;2.72;;;17.80;99.90;;;;;;20463429;28;20097;-50
2021/07/15 06:49:06;;;;;;;10.33;3.73;;;17.40;99.90;;;;;;20467548;28;20039;-50
2021/07/15 06:59:07;;;;;;;7.65;3.90;;;17.20;99.90;;;;;;20463785;28;20146;-50
2021/07/15 07:09:09;;;;;;;9.15;3.03;;;17.10;99.90;;;;;;20463640;28;20043;-50
2021/07/15 07:19:10;;;;;;;12.27;4.10;;;17.10;99.90;;;;;;20457402;28;20043;-50
2021/07/15 07:29:11;;;;;;;11.25;4.10;;;17.10;99.90;;;;;;20455280;28;20432;-50
2021/07/15 07:39:12;;;;;;;11.25;3.53;;;17.20;99.90;;;;;;20453697;28;20035;-50
2021/07/15 07:49:13;;;;;;;9.35;3.80;;;17.10;99.90;;;;;;20459401;28;20074;-50
2021/07/15 07:59:15;;;;;;;6.70;3.55;;;17.10;99.90;;;;;;20457459;28;20074;-50
2021/07/15 08:09:21;;;;;;;8.98;3.53;;;17.10;99.90;;;;;;20454469;28;20046;-50
2021/07/15 08:19:23;;;;;;;18.33;3.85;;;17.30;99.90;;;;;;20454560;28;20061;-50
2021/07/15 08:29:24;;;;;;;10.88;3.42;;;17.30;99.90;;;;;;20455834;28;20137;-50
2021/07/15 08:39:25;;;;;;;9.52;4.00;;;17.40;99.90;;;;;;20453888;28;20042;-50
2021/07/15 08:49:27;;;;;;;8.25;3.03;;;17.30;99.90;;;;;;20451222;28;20047;-50
2021/07/15 08:59:28;;;;;;;10.20;3.85;;;17.40;99.90;;;;;;20461885;28;20035;-50
2021/07/15 09:09:29;;;;;;;7.78;3.05;;;17.50;99.90;;;;;;20463681;28;20562;-50
2021/07/15 09:19:32;;;;;;;6.88;3.47;;;17.40;99.90;;;;;;20465562;28;20547;-50
2021/07/15 09:29:34;;;;;;;5.47;2.42;;;17.50;99.90;;;;;;20466007;28;20043;-50
2021/07/15 09:39:49;;;;;;;8.25;3.10;;;17.40;99.90;;;;;;20469561;28;20043;-50
2021/07/15 09:49:50;;;;;;;7.93;2.88;;;17.30;99.90;;;;;;20471211;28;20581;-50
2021/07/15 09:59:52;;;;;;;7.55;2.72;;;17.30;99.90;;;;;;20471826;28;20046;-50
2021/07/15 10:10:19;;;;;;;15.35;3.17;;;17.40;99.90;;;;;;20463727;28;20073;-51
2021/07/15 10:20:21;;;;;;;13.33;3.63;;;17.50;99.90;;;;;;20472207;28;20515;-50
2021/07/15 10:30:23;;;;;;;10.73;4.55;;;17.40;99.90;;;;;;20469952;28;20066;-50
2021/07/15 10:40:24;;;;;;;8.65;3.70;;;17.50;99.90;;;;;;20469204;28;20425;-50
2021/07/15 10:50:26;;;;;;;12.15;4.65;;;17.50;99.90;;;;;;20461031;28;20055;-50
2021/07/15 11:00:28;;;;;;;8.18;3.80;;;17.50;99.90;;;;;;20463772;28;20067;-50
2021/07/15 11:10:33;;;;;;;9.35;4.00;;;17.40;99.90;;;;;;20457778;28;20069;-50
2021/07/15 11:20:34;;;;;;;9.82;3.30;;;17.40;99.90;;;;;;20439165;28;20077;-50
2021/07/15 11:30:36;;;;;;;12.73;4.78;;;17.40;99.90;;;;;;20465636;28;20046;-50
2021/07/15 11:40:37;;;;;;;8.80;3.35;;;17.60;99.90;;;;;;20461478;28;20134;-50
2021/07/15 11:50:39;;;;;;;8.68;3.67;;;17.80;99.90;;;;;;20459836;28;20051;-50
2021/07/15 12:00:40;;;;;;;12.02;3.45;;;17.70;99.90;;;;;;20459420;28;20168;-50
2021/07/15 12:10:48;;;;;;;10.65;4.53;;;17.80;99.90;;;;;;20457401;28;20066;-50
2021/07/15 12:20:54;;;;;;;10.73;4.25;;;17.90;99.90;;;;;;20458080;28;20171;-50
2021/07/15 12:31:08;;;;;;;10.30;3.90;;;18.00;99.90;;;;;;20459083;28;20047;-50
2021/07/15 12:41:11;;;;;;;12.02;3.75;;;17.90;99.90;;;;;;20459556;28;20376;-50
2021/07/15 12:51:14;;;;;;;8.85;3.38;;;17.80;99.90;;;;;;20450756;28;20062;-50
2021/07/15 13:01:16;;;;;;;7.13;3.25;;;17.90;99.90;;;;;;20458838;28;20051;-50
2021/07/15 13:21:39;;;;;;;11.52;3.67;;;17.80;99.90;;;;;;20456360;28;20536;-50
2021/07/15 13:31:41;;;;;;;8.75;3.72;;;17.90;99.90;;;;;;20456302;28;20157;-50
2021/07/15 13:41:42;;;;;;;6.63;3.15;;;17.80;99.90;;;;;;20458759;28;20204;-50
2021/07/15 13:51:43;;;;;;;9.35;3.65;;;17.80;99.90;;;;;;20468612;28;20051;-50
2021/07/15 14:01:45;;;;;;;7.55;2.97;;;17.80;99.90;;;;;;20464834;28;20064;-50
2021/07/15 14:11:47;;;;;;;6.63;2.65;;;17.80;99.90;;;;;;20470220;28;20039;-50
2021/07/15 14:21:49;;;;;;;8.43;3.45;;;17.70;99.90;;;;;;20467210;28;20066;-50
2021/07/15 14:31:50;;;;;;;3.92;2.30;;;17.70;99.90;;;;;;20468043;28;20414;-50
2021/07/15 14:41:52;;;;;;;9.20;3.40;;;17.50;99.90;;;;;;20462381;28;20454;-50
2021/07/15 14:51:54;;;;;;;5.65;2.25;;;17.60;99.90;;;;;;20459095;28;20422;-50
2021/07/15 15:01:56;;;;;;;6.38;2.60;;;17.70;99.90;;;;;;20458729;28;20182;-50
2021/07/15 15:11:57;;;;;;;4.15;2.22;;;17.70;99.90;;;;;;20458795;28;20043;-50
2021/07/15 15:21:59;;;;;;;6.22;2.15;;;17.80;99.90;;;;;;20455725;28;20043;-50
2021/07/15 15:32:00;;;;;;;7.85;2.28;;;17.80;99.90;;;;;;20455598;28;20047;-50
2021/07/15 15:42:06;;;;;;;6.80;2.90;;;17.90;99.90;;;;;;20457103;28;20407;-50
2021/07/15 15:52:09;;;;;;;7.32;2.08;;;17.90;99.90;;;;;;20456397;28;20083;-50
2021/07/15 16:02:11;;;;;;;8.55;2.17;;;17.90;99.90;;;;;;20456749;28;20448;-50
2021/07/15 16:12:12;;;;;;;7.20;2.60;;;18.10;99.90;;;;;;20455883;28;20042;-50
2021/07/15 16:22:13;;;;;;;7.25;2.22;;;18.10;99.90;;;;;;20439581;28;20137;-50
2021/07/15 16:32:15;;;;;;;6.68;1.58;;;18.20;99.90;;;;;;20454514;28;20134;-50
2021/07/15 16:42:17;;;;;;;6.40;2.47;;;18.30;99.90;;;;;;20454596;28;20047;-50
2021/07/15 16:52:18;;;;;;;10.65;2.55;;;18.30;99.90;;;;;;20440979;28;20047;-50
2021/07/15 17:02:19;;;;;;;5.32;1.80;;;18.30;99.90;;;;;;20436559;28;20191;-50
2021/07/15 17:12:21;;;;;;;10.18;3.35;;;18.30;99.90;;;;;;20449198;28;20122;-50
2021/07/15 17:22:22;;;;;;;4.57;1.83;;;18.30;99.90;;;;;;20459835;28;20047;-50
2021/07/15 17:32:23;;;;;;;5.03;1.88;;;18.30;99.90;;;;;;20462281;28;20043;-50
2021/07/15 17:42:25;;;;;;;6.63;1.35;;;18.20;99.90;;;;;;20451244;28;20822;-50
2021/07/15 17:52:26;;;;;;;3.80;1.33;;;18.30;99.90;;;;;;20450668;28;20086;-50
2021/07/15 18:02:27;;;;;;;4.78;2.05;;;18.30;99.90;;;;;;20455812;28;20570;-50
2021/07/15 18:12:29;;;;;;;9.07;2.13;;;18.30;99.90;;;;;;20452894;28;20411;-50
2021/07/15 18:22:30;;;;;;;7.45;1.90;;;18.40;99.90;;;;;;20444067;28;20047;-50
2021/07/15 18:32:31;;;;;;;6.40;1.92;;;18.50;99.90;;;;;;20446897;28;20152;-51
2021/07/15 18:42:32;;;;;;;6.55;2.42;;;18.40;99.90;;;;;;20443602;28;20082;-50
2021/07/15 18:52:35;;;;;;;7.18;2.53;;;18.30;99.90;;;;;;20429914;28;20197;-50
2021/07/15 19:02:36;;;;;;;3.63;1.52;;;18.30;99.90;;;;;;20430717;28;20118;-50
2021/07/15 19:12:42;;;;;;;11.70;2.67;;;18.10;99.90;;;;;;20436663;28;20043;-50
2021/07/15 19:22:44;;;;;;;4.20;1.60;;;18.10;99.90;;;;;;20436818;28;20514;-50
2021/07/15 19:32:46;;;;;;;7.20;2.10;;;18.00;99.90;;;;;;20440708;28;20058;-50
2021/07/15 19:42:49;;;;;;;6.90;2.60;;;18.10;99.90;;;;;;20437925;28;20447;-50
2021/07/15 19:52:50;;;;;;;3.42;1.67;;;18.00;99.90;;;;;;20445726;28;20055;-50
2021/07/15 20:02:52;;;;;;;4.50;1.52;;;18.00;99.90;;;;;;20443817;28;20043;-50
2021/07/15 20:12:55;;;;;;;3.72;1.45;;;17.80;99.90;;;;;;20445645;28;20376;-50
2021/07/15 20:22:56;;;;;;;4.55;1.73;;;17.90;99.90;;;;;;20443822;28;20035;-50
2021/07/15 20:32:57;;;;;;;4.63;1.80;;;17.80;99.90;;;;;;20439803;28;20422;-50
2021/07/15 20:42:59;;;;;;;3.67;1.75;;;17.90;99.90;;;;;;20432575;28;20078;-50
2021/07/15 20:53:00;;;;;;;4.60;1.42;;;17.90;99.90;;;;;;20435561;28;20051;-50
2021/07/15 21:03:03;;;;;;;6.05;1.45;;;17.70;99.90;;;;;;20440782;28;20071;-50
2021/07/15 21:13:07;;;;;;;7.03;1.95;;;17.70;99.90;;;;;;20439254;28;20047;-51
2021/07/15 21:23:08;;;;;;;5.22;1.73;;;17.60;99.90;;;;;;20443086;28;20045;-50
2021/07/15 21:33:09;;;;;;;4.03;1.30;;;17.50;99.90;;;;;;20442306;28;20147;-50
2021/07/15 21:43:11;;;;;;;3.97;1.40;;;17.50;99.90;;;;;;20438728;28;20093;-50
2021/07/15 21:53:12;;;;;;;8.40;1.80;;;17.50;99.90;;;;;;20434258;28;20047;-50
2021/07/15 22:03:14;;;;;;;5.75;1.85;;;17.50;99.90;;;;;;20452759;28;20145;-50
2021/07/15 22:13:15;;;;;;;4.43;1.45;;;17.50;99.90;;;;;;20456781;28;20404;-50
2021/07/15 22:23:19;;;;;;;2.83;1.10;;;17.30;99.90;;;;;;20452536;28;20673;-50
2021/07/15 22:33:20;;;;;;;5.78;1.20;;;17.20;99.90;;;;;;20452218;28;20534;-50
2021/07/15 22:43:23;;;;;;;5.15;1.67;;;17.30;99.90;;;;;;20453072;28;20394;-50
2021/07/15 22:53:25;;;;;;;5.00;2.33;;;17.30;99.90;;;;;;20455768;28;20076;-51
2021/07/15 23:03:27;;;;;;;9.88;2.97;;;17.20;99.90;;;;;;20461886;28;20502;-50
2021/07/15 23:13:28;;;;;;;5.30;1.63;;;17.10;99.90;;;;;;20448232;28;20050;-50
2021/07/15 23:23:29;;;;;;;3.13;1.42;;;17.20;99.90;;;;;;20454476;28;20485;-50
2021/07/15 23:33:30;;;;;;;4.03;1.60;;;17.30;99.90;;;;;;20448989;28;20059;-51
2021/07/15 23:43:31;;;;;;;5.07;2.00;;;17.10;99.90;;;;;;20445359;28;20054;-50
2021/07/15 23:53:32;;;;;;;4.85;1.15;;;16.90;99.90;;;;;;20452513;28;20205;-50
